Time;durP1;ratioP1;P1;durP2;ratioP2;P2;SDS_P1;SDS_P2;PMS_P1;PMS_P2;Temp;Humidity;BMP_temperature;BMP_pressure;BME280_temperature;BME280_humidity;BME280_pressure;Samples;Min_cycle;Max_cycle;Signal;HPM_P1;HPM_P2
2022/07/04 00:00:21;;;;;;;5.07;3.70;;;15.50;99.90;;;;;;5154885;27;20035;-78
2022/07/04 00:02:48;;;;;;;5.50;4.13;;;15.50;99.90;;;;;;5154914;27;20077;-78
2022/07/04 00:05:14;;;;;;;7.03;3.97;;;15.40;99.90;;;;;;5154872;27;20035;-78
2022/07/04 00:07:41;;;;;;;4.57;3.78;;;15.40;99.90;;;;;;5154686;27;20050;-78
2022/07/04 00:10:08;;;;;;;4.40;4.00;;;15.40;99.90;;;;;;5157509;27;20513;-76
2022/07/04 00:12:34;;;;;;;4.35;3.95;;;15.30;99.90;;;;;;5158472;27;20041;-78
2022/07/04 00:15:01;;;;;;;6.18;4.57;;;15.30;99.90;;;;;;5158185;27;20122;-77
2022/07/04 00:17:27;;;;;;;6.28;4.63;;;15.20;99.90;;;;;;5158439;27;20038;-77
2022/07/04 00:19:52;;;;;;;5.40;4.10;;;15.20;99.90;;;;;;5139775;27;20045;-77
2022/07/04 00:22:18;;;;;;;4.57;3.90;;;15.20;99.90;;;;;;5158262;27;20171;-77
2022/07/04 00:24:44;;;;;;;5.53;3.92;;;15.20;99.90;;;;;;5158524;27;20167;-77
2022/07/04 00:27:09;;;;;;;4.57;3.95;;;15.10;99.90;;;;;;5158344;27;20038;-76
2022/07/04 00:29:35;;;;;;;5.53;4.07;;;15.10;99.90;;;;;;5158114;27;20466;-77
2022/07/04 00:32:02;;;;;;;6.35;4.30;;;15.10;99.90;;;;;;5158177;27;20043;-77
2022/07/04 00:34:28;;;;;;;6.00;4.07;;;15.10;99.90;;;;;;5158106;27;20398;-78
2022/07/04 00:36:53;;;;;;;6.05;4.10;;;15.00;99.90;;;;;;5157946;27;20048;-77
2022/07/04 00:39:19;;;;;;;6.60;4.30;;;15.00;99.90;;;;;;5158038;27;20038;-77
2022/07/04 00:41:45;;;;;;;6.47;4.30;;;14.90;99.90;;;;;;5157943;27;20035;-78
2022/07/04 00:44:12;;;;;;;5.43;4.93;;;14.90;99.90;;;;;;5157877;27;20057;-78
2022/07/04 00:46:39;;;;;;;5.88;4.40;;;14.90;99.90;;;;;;5157824;27;20432;-77
2022/07/04 00:49:05;;;;;;;6.82;5.00;;;14.60;99.90;;;;;;5157869;27;20046;-78
2022/07/04 00:51:31;;;;;;;4.90;4.40;;;14.80;99.90;;;;;;5157838;27;20077;-77
2022/07/04 00:53:57;;;;;;;7.22;5.40;;;14.80;99.90;;;;;;5157763;27;20034;-77
2022/07/04 00:56:24;;;;;;;7.18;5.15;;;14.80;99.90;;;;;;5157738;27;20147;-78
2022/07/04 00:58:50;;;;;;;6.40;5.55;;;14.80;99.90;;;;;;5157586;27;20474;-78
2022/07/04 01:01:17;;;;;;;6.32;5.10;;;14.70;99.90;;;;;;5157517;27;20034;-78
2022/07/04 01:03:43;;;;;;;5.93;5.32;;;14.70;99.90;;;;;;5157595;27;20087;-78
2022/07/04 01:06:09;;;;;;;6.22;5.22;;;14.70;99.90;;;;;;5157250;27;20482;-78
2022/07/04 01:08:42;;;;;;;8.73;5.10;;;14.70;99.90;;;;;;5156984;27;20608;-78
2022/07/04 01:11:09;;;;;;;6.05;5.03;;;14.60;99.90;;;;;;5157659;27;20345;-77
2022/07/04 01:13:35;;;;;;;6.95;5.18;;;14.60;99.90;;;;;;5157339;27;20070;-78
2022/07/04 01:16:01;;;;;;;6.32;5.03;;;14.60;99.90;;;;;;5157339;27;20070;-78
2022/07/04 01:18:26;;;;;;;7.97;5.33;;;14.50;99.90;;;;;;5157328;27;20123;-77
2022/07/04 01:20:52;;;;;;;6.47;5.30;;;14.50;99.90;;;;;;5156150;27;20031;-78
2022/07/04 01:23:17;;;;;;;7.43;5.17;;;14.50;99.90;;;;;;5157228;27;20035;-78
2022/07/04 01:25:43;;;;;;;7.67;5.87;;;14.50;99.90;;;;;;5157098;27;20035;-78
2022/07/04 01:28:09;;;;;;;6.23;5.53;;;14.50;99.90;;;;;;5157029;27;20080;-77
2022/07/04 01:30:36;;;;;;;7.83;5.63;;;14.40;99.90;;;;;;5157077;27;20184;-77
2022/07/04 01:33:02;;;;;;;6.68;5.82;;;14.40;99.90;;;;;;5156975;27;20035;-78
2022/07/04 01:35:28;;;;;;;6.80;5.87;;;14.30;99.90;;;;;;5156955;27;20031;-78
2022/07/04 01:37:54;;;;;;;6.43;5.63;;;14.30;99.90;;;;;;5156875;27;20035;-77
2022/07/04 01:40:20;;;;;;;5.75;5.00;;;14.30;99.90;;;;;;5156721;27;20282;-78
2022/07/04 01:42:45;;;;;;;8.52;5.78;;;14.20;99.90;;;;;;5156679;27;20427;-77
2022/07/04 01:45:12;;;;;;;7.50;6.33;;;14.20;99.90;;;;;;5156707;27;20042;-77
2022/07/04 01:47:38;;;;;;;6.25;5.65;;;14.20;99.90;;;;;;5156657;27;20037;-77
2022/07/04 01:50:05;;;;;;;8.85;5.55;;;14.20;99.90;;;;;;5156634;27;20038;-77
2022/07/04 01:52:32;;;;;;;7.75;5.75;;;14.20;99.90;;;;;;5156576;27;20043;-78
2022/07/04 01:54:57;;;;;;;7.43;5.85;;;14.20;99.90;;;;;;5156555;27;20427;-77
2022/07/04 01:57:23;;;;;;;7.00;6.05;;;14.20;99.90;;;;;;5156470;27;20038;-78
2022/07/04 02:02:33;;;;;;;7.93;6.22;;;14.20;99.90;;;;;;5156317;27;20074;-79
2022/07/04 02:04:59;;;;;;;6.80;6.10;;;14.10;99.90;;;;;;5156332;27;20059;-78
2022/07/04 02:07:24;;;;;;;6.00;5.50;;;14.10;99.90;;;;;;5137667;27;20058;-77
2022/07/04 02:09:50;;;;;;;6.72;6.03;;;14.00;99.90;;;;;;5156297;27;20039;-78
2022/07/04 02:15:00;;;;;;;7.35;6.65;;;14.00;99.90;;;;;;5156171;27;20047;-78
2022/07/04 02:17:25;;;;;;;7.03;6.27;;;14.00;99.90;;;;;;5156121;27;20035;-78
2022/07/04 02:19:51;;;;;;;8.10;6.43;;;14.00;99.90;;;;;;5156086;27;20122;-78
2022/07/04 02:22:17;;;;;;;7.30;6.60;;;14.00;99.90;;;;;;5155970;27;20103;-78
2022/07/04 02:24:42;;;;;;;7.03;6.38;;;14.00;99.90;;;;;;5155936;27;20462;-78
2022/07/04 02:27:08;;;;;;;8.32;6.97;;;13.90;99.90;;;;;;5156024;27;20035;-78
2022/07/04 02:29:34;;;;;;;7.37;6.60;;;13.90;99.90;;;;;;5155933;27;20066;-78
2022/07/04 02:32:00;;;;;;;8.70;7.30;;;13.90;99.90;;;;;;5155541;27;20118;-78
2022/07/04 02:34:26;;;;;;;7.95;7.03;;;13.90;99.90;;;;;;5155893;27;20509;-78
2022/07/04 02:36:51;;;;;;;7.43;6.72;;;13.80;99.90;;;;;;5155797;27;20501;-78
2022/07/04 02:39:17;;;;;;;8.53;7.30;;;13.70;99.90;;;;;;5155751;27;20039;-78
2022/07/04 02:41:42;;;;;;;7.72;6.93;;;13.80;99.90;;;;;;5155666;27;20529;-78
2022/07/04 02:44:08;;;;;;;8.15;7.35;;;13.70;99.90;;;;;;5155405;27;20031;-79
2022/07/04 02:46:34;;;;;;;6.43;5.82;;;13.70;99.90;;;;;;5155970;27;20109;-79
2022/07/04 02:49:00;;;;;;;8.48;7.68;;;13.70;99.90;;;;;;5155620;27;20077;-78
2022/07/04 02:51:26;;;;;;;8.50;7.68;;;13.70;99.90;;;;;;5155595;27;20118;-77
2022/07/04 02:53:52;;;;;;;7.67;6.93;;;13.70;99.90;;;;;;5155626;27;20491;-78
2022/07/04 02:56:18;;;;;;;8.43;7.63;;;13.60;99.90;;;;;;5155544;27;20117;-78
2022/07/04 02:58:43;;;;;;;8.10;7.28;;;13.60;99.90;;;;;;5155590;27;20315;-77
2022/07/04 03:01:10;;;;;;;8.30;7.43;;;13.60;99.90;;;;;;5155400;27;20038;-78
2022/07/04 03:03:35;;;;;;;8.20;7.10;;;13.50;99.90;;;;;;5155506;27;20164;-77
2022/07/04 03:06:01;;;;;;;8.63;7.83;;;13.50;99.90;;;;;;5155462;27;20072;-78
2022/07/04 03:08:27;;;;;;;8.95;8.02;;;13.50;99.90;;;;;;5155030;27;20107;-78
2022/07/04 03:10:52;;;;;;;9.50;8.02;;;13.50;99.90;;;;;;5136721;27;20141;-77
2022/07/04 03:13:19;;;;;;;9.07;8.13;;;13.40;99.90;;;;;;5155362;27;20547;-77
2022/07/04 03:15:45;;;;;;;9.38;8.25;;;13.40;99.90;;;;;;5155329;27;20045;-78
2022/07/04 03:18:11;;;;;;;12.07;8.73;;;13.40;99.90;;;;;;5155428;27;20445;-77
2022/07/04 03:20:37;;;;;;;10.00;8.35;;;13.40;99.90;;;;;;5155200;27;20046;-77
2022/07/04 03:23:02;;;;;;;9.80;7.80;;;13.40;99.90;;;;;;5155353;27;20118;-79
2022/07/04 03:25:29;;;;;;;10.60;8.13;;;13.30;99.90;;;;;;5155191;27;20035;-78
2022/07/04 03:27:54;;;;;;;9.07;7.90;;;13.30;99.90;;;;;;5155256;27;20035;-78
2022/07/04 03:30:20;;;;;;;10.43;8.40;;;13.30;99.90;;;;;;5155206;27;20359;-78
2022/07/04 03:32:46;;;;;;;10.05;8.75;;;13.30;99.90;;;;;;5155231;27;20171;-78
2022/07/04 03:35:11;;;;;;;11.87;9.30;;;13.30;99.90;;;;;;5155210;27;20487;-78
2022/07/04 03:37:37;;;;;;;10.65;8.77;;;13.30;99.90;;;;;;5155180;27;20039;-77
2022/07/04 03:40:03;;;;;;;9.80;8.27;;;13.30;99.90;;;;;;5155046;27;20080;-77
2022/07/04 03:42:28;;;;;;;9.80;8.15;;;13.30;99.90;;;;;;5155088;27;20039;-77
2022/07/04 03:44:54;;;;;;;9.00;8.13;;;13.30;99.90;;;;;;5157648;27;20435;-78
2022/07/04 03:47:20;;;;;;;9.43;8.52;;;13.30;99.90;;;;;;5159081;27;20026;-79
2022/07/04 03:49:45;;;;;;;8.88;8.00;;;13.30;99.90;;;;;;5159044;27;20030;-79
2022/07/04 03:52:11;;;;;;;10.80;8.45;;;13.30;99.90;;;;;;5158980;27;20482;-78
2022/07/04 03:54:37;;;;;;;10.05;9.02;;;13.30;99.90;;;;;;5158916;27;20087;-78
2022/07/04 03:57:03;;;;;;;12.65;9.57;;;13.30;99.90;;;;;;5158906;27;20045;-77
2022/07/04 03:59:28;;;;;;;11.00;9.18;;;13.40;99.90;;;;;;5158825;27;20038;-78
2022/07/04 04:01:54;;;;;;;10.63;9.53;;;13.30;99.90;;;;;;5158580;27;20408;-77
2022/07/04 04:07:04;;;;;;;10.98;9.45;;;13.40;99.90;;;;;;5158585;27;20103;-78
2022/07/04 04:09:29;;;;;;;11.17;9.87;;;13.50;99.90;;;;;;5158207;27;20051;-78
2022/07/04 04:11:55;;;;;;;11.33;10.17;;;13.50;99.90;;;;;;5140129;27;20062;-79
2022/07/04 04:14:21;;;;;;;10.60;9.43;;;13.50;99.90;;;;;;5158583;27;20043;-79
2022/07/04 04:16:46;;;;;;;12.88;10.32;;;13.50;99.90;;;;;;5158522;27;20034;-79
2022/07/04 04:19:12;;;;;;;11.32;10.18;;;13.50;99.90;;;;;;5158534;27;20076;-78
2022/07/04 04:21:38;;;;;;;14.45;12.00;;;13.50;99.90;;;;;;5158066;27;20042;-77
2022/07/04 04:24:04;;;;;;;12.87;11.17;;;13.50;99.90;;;;;;5158703;27;20089;-78
2022/07/04 04:26:30;;;;;;;12.88;11.40;;;13.50;99.90;;;;;;5158381;27;20047;-79
2022/07/04 04:28:56;;;;;;;12.47;11.20;;;13.60;99.90;;;;;;5158314;27;20383;-79
2022/07/04 04:31:21;;;;;;;15.52;13.00;;;13.60;99.90;;;;;;5158227;27;20383;-78
2022/07/04 04:33:47;;;;;;;12.90;11.55;;;13.60;99.90;;;;;;5158128;27;20498;-78
2022/07/04 04:36:13;;;;;;;12.75;11.40;;;13.70;99.90;;;;;;5158104;27;20070;-79
2022/07/04 04:38:38;;;;;;;13.30;11.90;;;13.70;99.90;;;;;;5158026;27;20391;-79
2022/07/04 04:41:04;;;;;;;18.10;12.73;;;13.70;99.90;;;;;;5157992;27;20035;-79
2022/07/04 04:43:30;;;;;;;12.55;10.98;;;13.70;99.90;;;;;;5157956;27;20117;-78
2022/07/04 04:45:55;;;;;;;13.95;12.00;;;13.80;99.90;;;;;;5157699;27;20035;-78
2022/07/04 04:48:21;;;;;;;13.95;11.93;;;13.80;99.90;;;;;;5157916;27;20046;-78
2022/07/04 04:50:47;;;;;;;12.60;10.90;;;13.80;99.90;;;;;;5157898;27;20027;-77
2022/07/04 04:53:12;;;;;;;14.07;11.93;;;13.80;99.90;;;;;;5157756;27;20030;-78
2022/07/04 04:55:39;;;;;;;16.58;12.88;;;14.00;99.90;;;;;;5157615;27;20390;-78
2022/07/04 04:58:05;;;;;;;13.00;11.70;;;14.00;99.90;;;;;;5157732;27;20035;-78
2022/07/04 05:00:31;;;;;;;13.73;12.00;;;14.00;99.90;;;;;;5157686;27;20046;-77
2022/07/04 05:02:57;;;;;;;14.70;11.23;;;14.00;99.90;;;;;;5157587;27;20039;-79
2022/07/04 05:05:22;;;;;;;11.15;10.05;;;14.10;99.90;;;;;;5157606;27;20038;-78
2022/07/04 05:07:48;;;;;;;14.20;10.43;;;14.10;99.90;;;;;;5157192;27;20549;-78
2022/07/04 05:10:15;;;;;;;13.00;9.65;;;14.20;99.90;;;;;;5157508;27;20035;-77
2022/07/04 05:12:41;;;;;;;12.15;10.25;;;14.30;99.90;;;;;;5157452;27;20042;-78
2022/07/04 05:15:08;;;;;;;16.13;10.18;;;14.30;99.90;;;;;;5157379;27;20126;-78
2022/07/04 05:17:33;;;;;;;11.07;8.73;;;14.30;99.90;;;;;;5157353;27;20042;-78
2022/07/04 05:19:59;;;;;;;11.30;9.40;;;14.40;99.90;;;;;;5156970;27;20394;-78
2022/07/04 05:22:24;;;;;;;10.87;9.47;;;14.40;99.90;;;;;;5157089;27;20035;-79
2022/07/04 05:24:50;;;;;;;10.43;9.30;;;14.40;99.90;;;;;;5157172;27;20038;-76
2022/07/04 05:27:15;;;;;;;14.07;9.20;;;14.50;99.90;;;;;;5156884;27;20364;-77
2022/07/04 05:29:41;;;;;;;10.27;8.27;;;14.60;99.90;;;;;;5157046;27;20038;-77
2022/07/04 05:32:07;;;;;;;16.08;8.82;;;14.80;99.90;;;;;;5157055;27;20038;-77
2022/07/04 05:34:33;;;;;;;8.93;8.02;;;15.10;99.90;;;;;;5156928;27;20417;-78
2022/07/04 05:36:59;;;;;;;13.53;7.83;;;15.30;99.90;;;;;;5156901;27;20038;-78
2022/07/04 05:39:24;;;;;;;15.65;7.90;;;15.70;99.90;;;;;;5156816;27;20536;-77
2022/07/04 05:41:50;;;;;;;10.70;7.13;;;15.90;99.90;;;;;;5156740;27;20039;-77
2022/07/04 05:44:15;;;;;;;11.38;6.95;;;16.30;99.90;;;;;;5156797;27;20113;-77
2022/07/04 05:46:41;;;;;;;12.57;6.97;;;16.60;99.90;;;;;;5156731;27;20119;-77
2022/07/04 05:49:06;;;;;;;8.68;6.03;;;16.90;99.90;;;;;;5156727;27;20168;-78
2022/07/04 05:51:32;;;;;;;9.48;6.07;;;17.00;99.90;;;;;;5156572;27;20038;-78
2022/07/04 05:53:58;;;;;;;8.60;5.63;;;17.10;99.90;;;;;;5156592;27;20031;-78
2022/07/04 05:56:23;;;;;;;9.33;6.57;;;17.30;99.90;;;;;;5156572;27;20039;-78
2022/07/04 05:58:49;;;;;;;6.40;5.43;;;17.40;99.90;;;;;;5156537;27;20035;-78
2022/07/04 06:01:14;;;;;;;7.87;5.70;;;17.70;99.90;;;;;;5156371;27;20034;-78
2022/07/04 06:03:40;;;;;;;7.47;5.30;;;17.80;99.90;;;;;;5156427;27;20038;-78
2022/07/04 06:06:06;;;;;;;8.53;5.63;;;18.10;99.90;;;;;;5155830;27;20542;-78
2022/07/04 06:08:31;;;;;;;13.80;4.90;;;18.40;99.90;;;;;;5155813;27;20051;-77
2022/07/04 06:10:58;;;;;;;7.90;5.07;;;18.40;99.90;;;;;;5156148;27;20114;-78
2022/07/04 06:13:24;;;;;;;6.57;4.82;;;18.60;99.90;;;;;;5156222;27;20129;-78
2022/07/04 06:15:49;;;;;;;9.10;5.13;;;18.60;99.90;;;;;;5156141;27;20486;-78
2022/07/04 06:18:15;;;;;;;9.90;5.00;;;18.80;99.90;;;;;;5156085;27;20038;-78
2022/07/04 06:20:41;;;;;;;7.53;5.77;;;18.80;99.90;;;;;;5155988;27;20039;-78
2022/07/04 06:23:07;;;;;;;7.70;5.07;;;18.90;99.90;;;;;;5155892;27;20062;-78
2022/07/04 06:25:33;;;;;;;8.03;5.43;;;18.90;99.90;;;;;;5155967;27;20081;-79
2022/07/04 06:28:00;;;;;;;9.82;4.93;;;18.90;99.90;;;;;;5155803;27;20034;-78
2022/07/04 06:30:26;;;;;;;5.72;4.88;;;19.00;99.90;;;;;;5155880;27;20041;-78
2022/07/04 06:32:57;;;;;;;9.23;5.30;;;19.00;99.90;;;;;;5155879;27;20039;-79
2022/07/04 06:38:11;;;;;;;11.35;5.53;;;19.10;99.90;;;;;;5155807;27;20088;-78
2022/07/04 06:40:38;;;;;;;8.95;5.22;;;19.00;99.90;;;;;;5155821;27;20061;-78
2022/07/04 06:43:04;;;;;;;10.73;4.70;;;19.00;99.90;;;;;;5155701;27;20058;-77
2022/07/04 06:45:30;;;;;;;8.47;4.90;;;18.90;99.90;;;;;;5136939;27;20416;-79
2022/07/04 06:47:56;;;;;;;8.05;4.68;;;18.80;99.90;;;;;;5155676;27;20031;-78
2022/07/04 06:50:22;;;;;;;7.70;4.10;;;18.90;99.90;;;;;;5137030;27;20080;-78
2022/07/04 06:52:48;;;;;;;9.13;4.55;;;18.90;99.90;;;;;;5155661;27;20451;-79
2022/07/04 06:55:14;;;;;;;8.27;3.90;;;19.00;99.90;;;;;;5155279;27;20039;-78
2022/07/04 06:57:39;;;;;;;7.97;4.23;;;19.10;99.90;;;;;;5155546;27;20117;-78
2022/07/04 07:00:07;;;;;;;6.30;4.07;;;19.20;99.90;;;;;;5155225;27;20802;-76
2022/07/04 07:02:36;;;;;;;6.88;3.85;;;19.40;99.90;;;;;;5155336;27;20050;-78
2022/07/04 07:05:02;;;;;;;6.88;3.80;;;19.40;99.90;;;;;;5155462;27;20057;-77
2022/07/04 07:07:28;;;;;;;8.02;4.05;;;19.40;99.90;;;;;;5155197;27;20058;-77
2022/07/04 07:09:54;;;;;;;8.33;3.70;;;19.40;99.90;;;;;;5155436;27;20129;-78
2022/07/04 07:12:22;;;;;;;5.68;3.88;;;19.40;99.90;;;;;;5155447;27;20117;-78
2022/07/04 07:14:48;;;;;;;7.40;3.90;;;19.40;99.90;;;;;;5155455;27;20030;-77
2022/07/04 07:17:15;;;;;;;10.57;4.05;;;19.40;99.90;;;;;;5155413;27;20053;-78
2022/07/04 07:19:42;;;;;;;;;;;19.50;99.90;;;;;;5158461;27;20079;-78
2022/07/04 07:22:08;;;;;;;8.20;3.50;;;19.70;99.90;;;;;;5159833;27;19925;-78
2022/07/04 07:24:34;;;;;;;10.18;3.90;;;19.80;99.90;;;;;;5159676;27;20070;-78
2022/07/04 07:27:00;;;;;;;7.13;3.63;;;19.90;99.90;;;;;;5159512;27;20066;-79
2022/07/04 07:29:26;;;;;;;9.48;3.63;;;20.00;99.90;;;;;;5159438;27;20035;-77
2022/07/04 07:31:51;;;;;;;6.07;3.47;;;20.00;99.90;;;;;;5159358;27;20043;-78
2022/07/04 07:34:17;;;;;;;11.47;3.77;;;19.70;99.90;;;;;;5159347;27;20042;-78
2022/07/04 07:36:42;;;;;;;6.57;3.60;;;20.00;99.90;;;;;;5159284;27;20070;-77
2022/07/04 07:39:08;;;;;;;9.20;3.93;;;19.90;99.90;;;;;;5159276;27;20513;-77
2022/07/04 07:41:34;;;;;;;8.93;3.83;;;20.00;99.90;;;;;;5159114;27;20083;-77
2022/07/04 07:43:59;;;;;;;7.80;3.17;;;20.00;99.90;;;;;;5159186;27;20114;-78
2022/07/04 07:46:25;;;;;;;7.47;3.33;;;20.10;99.90;;;;;;5159133;27;20089;-78
2022/07/04 07:48:51;;;;;;;7.53;3.97;;;20.00;99.90;;;;;;5159066;27;20039;-79
2022/07/04 07:51:16;;;;;;;10.10;3.70;;;20.00;99.90;;;;;;5140593;27;20035;-78
2022/07/04 07:53:43;;;;;;;8.50;3.17;;;20.20;99.90;;;;;;5159021;27;20453;-79
2022/07/04 07:56:08;;;;;;;8.82;3.88;;;20.30;99.90;;;;;;5158905;27;20117;-78
2022/07/04 07:58:34;;;;;;;8.87;3.23;;;20.50;99.90;;;;;;5158899;27;20073;-79
2022/07/04 08:01:01;;;;;;;7.07;3.20;;;20.60;99.90;;;;;;5158797;27;20424;-79
2022/07/04 08:06:13;;;;;;;8.48;3.30;;;20.70;99.90;;;;;;5158719;27;20039;-79
2022/07/04 08:08:40;;;;;;;9.18;2.97;;;20.70;99.90;;;;;;5158369;27;20054;-78
2022/07/04 08:11:05;;;;;;;7.47;2.95;;;20.70;99.90;;;;;;5140049;27;20478;-78
2022/07/04 08:13:32;;;;;;;7.13;3.27;;;20.70;99.90;;;;;;5139746;27;20164;-78
2022/07/04 08:15:58;;;;;;;10.23;2.70;;;20.70;99.90;;;;;;5158457;27;20042;-79
2022/07/04 08:18:23;;;;;;;6.10;2.67;;;20.70;99.90;;;;;;5158497;27;20034;-78
2022/07/04 08:20:50;;;;;;;10.67;3.17;;;20.80;99.90;;;;;;5158413;27;20039;-78
2022/07/04 08:23:16;;;;;;;9.68;2.70;;;20.70;99.90;;;;;;5158386;27;20049;-78
2022/07/04 08:25:42;;;;;;;6.30;2.67;;;20.60;99.90;;;;;;5158354;27;20080;-78
2022/07/04 08:28:07;;;;;;;6.40;2.60;;;20.50;99.90;;;;;;5158168;27;20038;-78
2022/07/04 08:30:34;;;;;;;7.47;3.00;;;20.50;99.90;;;;;;5157682;27;20031;-78
2022/07/04 08:32:59;;;;;;;8.73;2.95;;;20.50;99.90;;;;;;5158239;27;20379;-79
2022/07/04 08:35:25;;;;;;;5.77;2.47;;;20.50;99.90;;;;;;5158204;27;20115;-79
2022/07/04 08:37:53;;;;;;;9.47;3.13;;;20.40;99.90;;;;;;5139787;27;20046;-78
2022/07/04 08:40:22;;;;;;;7.22;2.40;;;20.30;99.90;;;;;;5158071;27;20046;-78
2022/07/04 08:42:49;;;;;;;8.00;2.33;;;20.30;99.90;;;;;;5157525;27;20494;-78
2022/07/04 08:45:16;;;;;;;7.82;2.70;;;20.20;99.90;;;;;;5157667;27;20039;-79
2022/07/04 08:47:43;;;;;;;8.55;2.65;;;20.00;99.90;;;;;;5157952;27;20040;-79
2022/07/04 08:50:22;;;;;;;6.30;2.30;;;20.10;99.90;;;;;;5157891;27;20105;-78
2022/07/04 08:52:54;;;;;;;9.13;2.90;;;20.10;99.90;;;;;;5157912;27;20038;-78
2022/07/04 09:00:50;;;;;;;8.25;3.10;;;20.20;99.90;;;;;;5157637;27;20044;-77
2022/07/04 09:03:18;;;;;;;8.55;3.00;;;20.30;99.90;;;;;;5157639;27;20034;-78
2022/07/04 09:05:44;;;;;;;6.80;3.00;;;20.40;99.90;;;;;;5157523;27;20402;-78
2022/07/04 09:08:10;;;;;;;8.07;2.97;;;20.60;99.90;;;;;;5157172;27;20047;-79
2022/07/04 09:10:36;;;;;;;9.27;3.20;;;20.80;99.90;;;;;;5157507;27;20039;-79
2022/07/04 09:13:04;;;;;;;6.57;2.80;;;21.00;99.90;;;;;;5157399;27;20041;-78
2022/07/04 09:15:31;;;;;;;10.48;3.05;;;21.10;99.90;;;;;;5157393;27;20034;-78
2022/07/04 09:17:57;;;;;;;8.63;3.28;;;21.20;99.90;;;;;;5157335;27;20043;-78
2022/07/04 09:20:24;;;;;;;8.25;2.95;;;21.30;99.90;;;;;;5157018;27;20486;-77
2022/07/04 09:22:51;;;;;;;9.70;3.40;;;21.30;99.90;;;;;;5157081;27;20114;-78
2022/07/04 09:25:17;;;;;;;9.25;2.90;;;21.50;99.90;;;;;;5157215;27;20035;-78
2022/07/04 09:27:54;;;;;;;7.07;2.58;;;21.80;99.90;;;;;;5156817;27;20504;-79
2022/07/04 09:30:25;;;;;;;5.45;2.50;;;22.10;99.90;;;;;;5157130;27;20038;-79
2022/07/04 09:32:59;;;;;;;6.15;2.60;;;22.20;99.90;;;;;;5156980;27;20049;-78
2022/07/04 09:35:27;;;;;;;11.18;3.03;;;22.10;99.90;;;;;;5156965;27;20390;-78
2022/07/04 09:38:00;;;;;;;6.47;2.47;;;21.90;99.90;;;;;;5138234;27;20451;-78
2022/07/04 09:40:33;;;;;;;7.07;2.47;;;21.90;99.90;;;;;;5157202;27;20038;-78
2022/07/04 09:43:10;;;;;;;6.75;2.40;;;21.60;99.90;;;;;;5156109;27;20049;-79
2022/07/04 09:45:52;;;;;;;7.57;2.40;;;21.40;99.90;;;;;;5156799;27;20034;-78
2022/07/04 09:48:17;;;;;;;5.07;2.28;;;21.20;99.90;;;;;;5156779;27;20058;-78
2022/07/04 09:50:43;;;;;;;9.47;2.30;;;21.30;99.90;;;;;;5156696;27;20102;-79
2022/07/04 09:53:09;;;;;;;6.53;1.77;;;21.30;99.90;;;;;;5156687;27;20037;-79
2022/07/04 09:55:37;;;;;;;6.57;2.00;;;21.40;99.90;;;;;;5156555;27;20067;-78
2022/07/04 09:58:11;;;;;;;6.35;1.73;;;21.40;99.90;;;;;;5156504;27;20045;-78
2022/07/04 10:00:42;;;;;;;8.02;2.00;;;21.50;99.90;;;;;;5156383;27;20038;-78
2022/07/04 10:03:22;;;;;;;5.97;2.03;;;21.60;99.90;;;;;;5156864;27;20118;-78
2022/07/04 10:06:12;;;;;;;4.05;1.55;;;21.60;99.90;;;;;;5156357;27;20043;-77
2022/07/04 10:08:42;;;;;;;4.97;1.60;;;21.60;99.90;;;;;;5155999;27;20057;-77
2022/07/04 10:11:09;;;;;;;5.47;1.60;;;21.60;99.90;;;;;;5156267;27;20053;-78
2022/07/04 10:13:35;;;;;;;7.80;2.28;;;21.70;99.90;;;;;;5156291;27;20096;-78
2022/07/04 10:16:00;;;;;;;7.93;1.60;;;21.80;99.90;;;;;;5156264;27;20031;-77
2022/07/04 10:18:26;;;;;;;3.60;1.30;;;21.90;99.90;;;;;;5156187;27;20043;-78
2022/07/04 10:20:53;;;;;;;5.32;1.70;;;22.00;99.90;;;;;;5156082;27;20358;-79
2022/07/04 10:23:21;;;;;;;4.00;1.40;;;22.20;99.90;;;;;;5156009;27;20079;-78
2022/07/04 10:25:48;;;;;;;4.57;1.50;;;22.40;99.90;;;;;;5156012;27;20034;-78
2022/07/04 10:28:14;;;;;;;3.95;1.60;;;22.40;99.90;;;;;;5156027;27;20034;-78
2022/07/04 10:30:40;;;;;;;3.57;1.37;;;22.40;99.90;;;;;;5156019;27;20035;-77
2022/07/04 10:33:08;;;;;;;;;;;22.40;99.90;;;;;;5156339;27;20042;-78
2022/07/04 10:35:53;;;;;;;5.15;1.23;;;22.70;99.90;;;;;;5155923;27;20327;-78
2022/07/04 10:38:21;;;;;;;4.40;1.10;;;22.90;99.90;;;;;;5155833;27;20053;-77
2022/07/04 10:40:56;;;;;;;4.47;1.05;;;22.90;99.90;;;;;;5156170;27;20039;-78
2022/07/04 10:43:31;;;;;;;3.17;1.08;;;23.00;99.90;;;;;;5155635;27;20483;-77
2022/07/04 10:46:12;;;;;;;2.83;0.90;;;23.10;99.90;;;;;;5155485;27;20043;-78
2022/07/04 10:48:48;;;;;;;5.70;1.20;;;23.20;99.90;;;;;;5155681;27;20030;-77
2022/07/04 10:51:15;;;;;;;3.80;1.20;;;23.30;99.90;;;;;;5155691;27;20031;-77
2022/07/04 10:53:59;;;;;;;;;;;23.50;99.90;;;;;;5155624;27;20839;-78
2022/07/04 10:56:28;;;;;;;3.20;1.23;;;23.60;99.20;;;;;;5155524;27;19915;-78
2022/07/04 10:58:57;;;;;;;3.45;0.95;;;23.70;99.90;;;;;;5155397;27;20042;-77
2022/07/04 11:01:23;;;;;;;2.33;1.08;;;23.80;99.90;;;;;;5155360;27;20066;-79
2022/07/04 11:03:53;;;;;;;3.00;1.00;;;23.90;99.70;;;;;;5155510;27;20058;-78
2022/07/04 11:06:35;;;;;;;3.30;1.30;;;23.90;97.40;;;;;;5155460;27;20043;-79
2022/07/04 11:09:16;;;;;;;1.90;0.90;;;23.90;97.60;;;;;;5155275;27;20065;-78
2022/07/04 11:12:00;;;;;;;1.88;0.98;;;23.80;97.90;;;;;;5155034;27;20512;-78
2022/07/04 11:14:37;;;;;;;2.72;1.23;;;23.80;97.30;;;;;;5155340;27;20035;-78
2022/07/04 11:17:04;;;;;;;;;;;23.90;98.30;;;;;;5155757;27;20039;-78
2022/07/04 11:19:30;;;;;;;2.50;0.98;;;24.00;97.20;;;;;;5155360;27;19921;-79
2022/07/04 11:21:57;;;;;;;2.55;0.98;;;23.90;97.80;;;;;;5155219;27;20042;-78
2022/07/04 11:24:23;;;;;;;;;;;23.80;98.20;;;;;;5155476;27;20113;-80
2022/07/04 11:26:49;;;;;;;3.88;1.02;;;23.60;97.60;;;;;;5155514;27;19915;-79
2022/07/04 11:29:15;;;;;;;5.70;1.20;;;23.60;98.50;;;;;;5155285;27;20041;-78
2022/07/04 11:31:43;;;;;;;6.45;1.45;;;23.40;98.10;;;;;;5155228;27;20035;-78
2022/07/04 11:34:09;;;;;;;6.22;1.50;;;23.30;98.10;;;;;;5155181;27;20035;-78
2022/07/04 11:36:35;;;;;;;3.03;0.98;;;23.30;98.10;;;;;;5154790;27;20474;-79
2022/07/04 11:39:07;;;;;;;2.58;0.85;;;23.30;98.00;;;;;;5155168;27;20047;-79
2022/07/04 11:47:05;;;;;;;8.75;1.20;;;23.50;97.30;;;;;;5154983;27;20047;-79
2022/07/04 11:49:32;;;;;;;2.92;0.90;;;23.60;97.70;;;;;;5155670;27;20062;-78
2022/07/04 11:51:58;;;;;;;3.60;1.20;;;23.60;97.40;;;;;;5155069;27;20045;-78
2022/07/04 11:54:24;;;;;;;2.85;1.08;;;23.60;96.10;;;;;;5155034;27;20089;-78
2022/07/04 11:56:49;;;;;;;3.33;1.00;;;23.60;96.00;;;;;;5154977;27;20074;-78
2022/07/04 11:59:16;;;;;;;4.63;1.37;;;23.60;96.70;;;;;;5154716;27;20030;-79
2022/07/04 12:01:44;;;;;;;3.83;1.20;;;23.60;97.20;;;;;;5154780;27;20035;-78
2022/07/04 12:04:17;;;;;;;2.15;1.00;;;23.80;97.10;;;;;;5154899;27;20046;-78
2022/07/04 12:06:44;;;;;;;2.42;1.02;;;24.00;97.80;;;;;;5158754;27;20073;-80
2022/07/04 12:09:11;;;;;;;2.50;0.90;;;23.90;97.20;;;;;;5158189;27;20159;-79
2022/07/04 12:11:58;;;;;;;1.67;0.95;;;23.80;96.80;;;;;;5158421;27;20073;-79
2022/07/04 12:14:26;;;;;;;1.85;1.00;;;23.70;97.40;;;;;;5158605;27;20385;-79
2022/07/04 12:17:18;;;;;;;1.88;0.90;;;23.80;97.30;;;;;;5158526;27;20035;-79
2022/07/04 12:19:54;;;;;;;3.15;1.05;;;23.90;95.80;;;;;;5158330;27;20478;-79
2022/07/04 12:22:37;;;;;;;3.50;1.05;;;24.10;95.70;;;;;;5158448;27;20051;-79
2022/07/04 12:25:06;;;;;;;3.85;1.20;;;24.20;95.40;;;;;;5158441;27;20038;-78
2022/07/04 12:27:32;;;;;;;5.10;1.23;;;24.30;95.80;;;;;;5158279;27;20042;-78
2022/07/04 12:29:59;;;;;;;3.20;1.00;;;24.20;95.50;;;;;;5158330;27;20035;-78
2022/07/04 12:32:43;;;;;;;;;;;24.20;95.30;;;;;;5158647;27;20043;-78
2022/07/04 12:35:08;;;;;;;7.07;1.58;;;24.00;94.50;;;;;;5158163;27;19970;-79
2022/07/04 12:37:35;;;;;;;15.23;3.07;;;23.90;96.10;;;;;;5158170;27;20042;-79
2022/07/04 12:40:08;;;;;;;3.50;1.20;;;23.80;96.30;;;;;;5158149;27;20089;-78
2022/07/04 12:42:33;;;;;;;9.73;1.48;;;23.90;96.60;;;;;;5158011;27;20074;-78
2022/07/04 12:45:06;;;;;;;2.87;1.10;;;24.00;96.30;;;;;;5157894;27;20074;-78
2022/07/04 12:47:31;;;;;;;3.50;1.15;;;24.00;94.60;;;;;;5157928;27;20035;-78
2022/07/04 12:49:57;;;;;;;3.30;1.30;;;23.80;95.50;;;;;;5157794;27;20034;-78
2022/07/04 12:52:27;;;;;;;2.30;0.87;;;23.70;95.60;;;;;;5157825;27;20031;-78
2022/07/04 12:55:03;;;;;;;2.70;1.02;;;23.80;96.00;;;;;;5157810;27;20038;-78
2022/07/04 12:57:29;;;;;;;2.72;0.98;;;24.00;96.20;;;;;;5157661;27;20372;-78
2022/07/04 12:59:54;;;;;;;7.00;1.00;;;24.00;96.30;;;;;;5157623;27;20056;-78
2022/07/04 13:02:20;;;;;;;22.57;3.57;;;24.20;96.80;;;;;;5139094;27;20156;-78
2022/07/04 13:04:45;;;;;;;4.10;1.00;;;24.20;96.50;;;;;;5157652;27;20487;-78
2022/07/04 13:07:14;;;;;;;3.63;1.13;;;24.30;96.10;;;;;;5157447;27;20379;-78
2022/07/04 13:09:41;;;;;;;3.92;1.02;;;24.30;95.70;;;;;;5157572;27;20042;-78